sensor_id;sensor_type;location;lat;lon;timestamp;P1;durP1;ratioP1;P2;durP2;ratioP2
40827;SDS011;26549;50.918;5.338;2023-05-10T00:00:56;5.50;;;4.30;;
40827;SDS011;26549;50.918;5.338;2023-05-10T00:03:24;5.50;;;4.55;;
40827;SDS011;26549;50.918;5.338;2023-05-10T00:05:52;6.45;;;4.93;;
40827;SDS011;26549;50.918;5.338;2023-05-10T00:08:19;8.20;;;5.32;;
40827;SDS011;26549;50.918;5.338;2023-05-10T00:10:45;8.73;;;4.63;;
40827;SDS011;26549;50.918;5.338;2023-05-10T00:13:13;9.50;;;4.53;;
40827;SDS011;26549;50.918;5.338;2023-05-10T00:15:40;9.15;;;5.45;;
40827;SDS011;26549;50.918;5.338;2023-05-10T00:18:08;6.47;;;4.30;;
40827;SDS011;26549;50.918;5.338;2023-05-10T00:20:36;4.75;;;4.25;;
40827;SDS011;26549;50.918;5.338;2023-05-10T00:23:03;7.53;;;4.88;;
40827;SDS011;26549;50.918;5.338;2023-05-10T00:25:30;7.63;;;5.40;;
40827;SDS011;26549;50.918;5.338;2023-05-10T00:27:57;7.30;;;4.57;;
40827;SDS011;26549;50.918;5.338;2023-05-10T00:30:23;8.10;;;4.47;;
40827;SDS011;26549;50.918;5.338;2023-05-10T00:32:48;8.07;;;4.75;;
40827;SDS011;26549;50.918;5.338;2023-05-10T00:35:15;6.13;;;5.20;;
40827;SDS011;26549;50.918;5.338;2023-05-10T00:37:41;7.90;;;5.28;;
40827;SDS011;26549;50.918;5.338;2023-05-10T00:40:07;5.75;;;4.57;;
40827;SDS011;26549;50.918;5.338;2023-05-10T00:42:33;8.45;;;5.13;;
40827;SDS011;26549;50.918;5.338;2023-05-10T00:45:00;4.53;;;4.00;;
40827;SDS011;26549;50.918;5.338;2023-05-10T00:47:27;6.80;;;4.38;;
40827;SDS011;26549;50.918;5.338;2023-05-10T00:49:54;8.35;;;4.90;;
40827;SDS011;26549;50.918;5.338;2023-05-10T00:52:23;7.38;;;5.00;;
40827;SDS011;26549;50.918;5.338;2023-05-10T00:54:50;8.25;;;4.45;;
40827;SDS011;26549;50.918;5.338;2023-05-10T00:57:18;7.30;;;5.47;;
40827;SDS011;26549;50.918;5.338;2023-05-10T00:59:45;5.57;;;4.82;;
40827;SDS011;26549;50.918;5.338;2023-05-10T01:02:13;6.28;;;4.65;;
40827;SDS011;26549;50.918;5.338;2023-05-10T01:04:39;6.18;;;5.40;;
40827;SDS011;26549;50.918;5.338;2023-05-10T01:07:05;5.50;;;4.65;;
40827;SDS011;26549;50.918;5.338;2023-05-10T01:09:31;6.50;;;5.00;;
40827;SDS011;26549;50.918;5.338;2023-05-10T01:11:59;9.52;;;5.00;;
40827;SDS011;26549;50.918;5.338;2023-05-10T01:14:26;6.65;;;4.38;;
40827;SDS011;26549;50.918;5.338;2023-05-10T01:16:53;7.60;;;4.82;;
40827;SDS011;26549;50.918;5.338;2023-05-10T01:19:23;7.18;;;5.28;;
40827;SDS011;26549;50.918;5.338;2023-05-10T01:27:47;8.15;;;4.43;;
40827;SDS011;26549;50.918;5.338;2023-05-10T01:38:59;9.82;;;6.07;;
40827;SDS011;26549;50.918;5.338;2023-05-10T01:42:00;7.45;;;5.18;;
40827;SDS011;26549;50.918;5.338;2023-05-10T01:44:35;7.50;;;5.75;;
40827;SDS011;26549;50.918;5.338;2023-05-10T01:50:15;9.68;;;6.38;;
40827;SDS011;26549;50.918;5.338;2023-05-10T01:52:51;9.65;;;6.47;;
40827;SDS011;26549;50.918;5.338;2023-05-10T01:55:20;11.30;;;5.97;;
40827;SDS011;26549;50.918;5.338;2023-05-10T01:57:48;9.43;;;6.22;;
40827;SDS011;26549;50.918;5.338;2023-05-10T02:00:21;15.20;;;6.00;;
40827;SDS011;26549;50.918;5.338;2023-05-10T02:02:48;7.65;;;5.43;;
40827;SDS011;26549;50.918;5.338;2023-05-10T02:05:16;8.77;;;6.45;;
40827;SDS011;26549;50.918;5.338;2023-05-10T02:07:42;7.85;;;5.47;;
40827;SDS011;26549;50.918;5.338;2023-05-10T02:10:10;9.45;;;5.57;;
40827;SDS011;26549;50.918;5.338;2023-05-10T02:12:41;14.70;;;6.75;;
40827;SDS011;26549;50.918;5.338;2023-05-10T02:15:11;9.63;;;5.57;;
40827;SDS011;26549;50.918;5.338;2023-05-10T02:17:40;9.73;;;5.88;;
40827;SDS011;26549;50.918;5.338;2023-05-10T02:20:08;12.43;;;5.47;;
40827;SDS011;26549;50.918;5.338;2023-05-10T02:22:35;7.90;;;5.43;;
40827;SDS011;26549;50.918;5.338;2023-05-10T02:25:01;12.90;;;5.80;;
40827;SDS011;26549;50.918;5.338;2023-05-10T02:27:30;9.80;;;5.63;;
40827;SDS011;26549;50.918;5.338;2023-05-10T02:29:56;19.10;;;5.40;;
40827;SDS011;26549;50.918;5.338;2023-05-10T02:32:24;11.48;;;5.90;;
40827;SDS011;26549;50.918;5.338;2023-05-10T02:34:52;11.10;;;6.80;;
40827;SDS011;26549;50.918;5.338;2023-05-10T02:37:20;11.50;;;6.63;;
40827;SDS011;26549;50.918;5.338;2023-05-10T02:39:47;9.93;;;6.05;;
40827;SDS011;26549;50.918;5.338;2023-05-10T02:42:17;9.07;;;6.35;;
40827;SDS011;26549;50.918;5.338;2023-05-10T02:44:48;15.98;;;7.32;;
40827;SDS011;26549;50.918;5.338;2023-05-10T02:47:18;11.02;;;6.82;;
40827;SDS011;26549;50.918;5.338;2023-05-10T02:49:44;13.52;;;6.10;;
40827;SDS011;26549;50.918;5.338;2023-05-10T02:52:10;12.57;;;5.35;;
40827;SDS011;26549;50.918;5.338;2023-05-10T02:54:44;8.35;;;5.43;;
40827;SDS011;26549;50.918;5.338;2023-05-10T02:57:16;13.20;;;7.50;;
40827;SDS011;26549;50.918;5.338;2023-05-10T02:59:44;13.25;;;6.32;;
40827;SDS011;26549;50.918;5.338;2023-05-10T03:02:11;7.97;;;5.50;;
40827;SDS011;26549;50.918;5.338;2023-05-10T03:04:39;13.70;;;6.40;;
40827;SDS011;26549;50.918;5.338;2023-05-10T03:07:05;11.55;;;6.20;;
40827;SDS011;26549;50.918;5.338;2023-05-10T03:09:33;11.55;;;6.55;;
40827;SDS011;26549;50.918;5.338;2023-05-10T03:14:57;11.00;;;5.47;;
40827;SDS011;26549;50.918;5.338;2023-05-10T03:20:20;12.00;;;6.95;;
40827;SDS011;26549;50.918;5.338;2023-05-10T03:23:21;11.45;;;6.25;;
40827;SDS011;26549;50.918;5.338;2023-05-10T03:25:53;20.75;;;7.22;;
40827;SDS011;26549;50.918;5.338;2023-05-10T03:28:20;13.77;;;6.85;;
40827;SDS011;26549;50.918;5.338;2023-05-10T03:30:50;15.50;;;6.63;;
40827;SDS011;26549;50.918;5.338;2023-05-10T03:33:19;12.43;;;7.07;;
40827;SDS011;26549;50.918;5.338;2023-05-10T03:35:46;13.35;;;6.47;;
40827;SDS011;26549;50.918;5.338;2023-05-10T03:38:13;19.52;;;6.55;;
40827;SDS011;26549;50.918;5.338;2023-05-10T03:40:38;14.50;;;6.85;;
40827;SDS011;26549;50.918;5.338;2023-05-10T03:43:04;11.30;;;7.28;;
40827;SDS011;26549;50.918;5.338;2023-05-10T03:45:31;14.73;;;7.40;;
40827;SDS011;26549;50.918;5.338;2023-05-10T03:47:58;12.18;;;7.97;;
40827;SDS011;26549;50.918;5.338;2023-05-10T03:50:24;12.15;;;7.60;;
40827;SDS011;26549;50.918;5.338;2023-05-10T03:52:51;15.50;;;7.60;;
40827;SDS011;26549;50.918;5.338;2023-05-10T03:55:16;13.93;;;7.65;;
40827;SDS011;26549;50.918;5.338;2023-05-10T03:57:42;18.13;;;7.45;;
40827;SDS011;26549;50.918;5.338;2023-05-10T04:00:08;12.23;;;6.75;;
40827;SDS011;26549;50.918;5.338;2023-05-10T04:02:35;14.18;;;6.95;;
40827;SDS011;26549;50.918;5.338;2023-05-10T04:05:00;13.27;;;7.97;;
40827;SDS011;26549;50.918;5.338;2023-05-10T04:07:28;17.38;;;7.20;;
40827;SDS011;26549;50.918;5.338;2023-05-10T04:09:55;13.80;;;8.45;;
40827;SDS011;26549;50.918;5.338;2023-05-10T04:12:23;13.68;;;7.93;;
40827;SDS011;26549;50.918;5.338;2023-05-10T04:14:50;16.52;;;7.88;;
40827;SDS011;26549;50.918;5.338;2023-05-10T04:17:17;11.93;;;7.10;;
40827;SDS011;26549;50.918;5.338;2023-05-10T04:19:44;14.52;;;6.95;;
40827;SDS011;26549;50.918;5.338;2023-05-10T04:22:10;16.73;;;8.00;;
40827;SDS011;26549;50.918;5.338;2023-05-10T04:24:36;8.80;;;6.15;;
40827;SDS011;26549;50.918;5.338;2023-05-10T04:27:02;10.30;;;6.05;;
40827;SDS011;26549;50.918;5.338;2023-05-10T04:29:31;13.68;;;7.68;;
40827;SDS011;26549;50.918;5.338;2023-05-10T04:31:57;11.27;;;7.43;;
40827;SDS011;26549;50.918;5.338;2023-05-10T04:34:23;12.38;;;8.35;;
40827;SDS011;26549;50.918;5.338;2023-05-10T04:36:50;13.40;;;8.27;;
40827;SDS011;26549;50.918;5.338;2023-05-10T04:39:16;10.50;;;8.05;;
40827;SDS011;26549;50.918;5.338;2023-05-10T04:41:42;13.05;;;8.27;;
40827;SDS011;26549;50.918;5.338;2023-05-10T04:44:11;16.45;;;9.07;;
40827;SDS011;26549;50.918;5.338;2023-05-10T04:49:05;17.02;;;9.07;;
40827;SDS011;26549;50.918;5.338;2023-05-10T04:51:31;14.02;;;8.48;;
40827;SDS011;26549;50.918;5.338;2023-05-10T04:53:58;13.63;;;9.13;;
40827;SDS011;26549;50.918;5.338;2023-05-10T04:56:26;14.95;;;8.82;;
40827;SDS011;26549;50.918;5.338;2023-05-10T04:58:51;18.95;;;8.63;;
40827;SDS011;26549;50.918;5.338;2023-05-10T05:01:18;13.07;;;7.72;;
40827;SDS011;26549;50.918;5.338;2023-05-10T05:03:44;10.50;;;7.15;;
40827;SDS011;26549;50.918;5.338;2023-05-10T05:06:10;13.50;;;7.93;;
40827;SDS011;26549;50.918;5.338;2023-05-10T05:08:37;17.20;;;9.07;;
40827;SDS011;26549;50.918;5.338;2023-05-10T05:11:04;15.10;;;8.35;;
40827;SDS011;26549;50.918;5.338;2023-05-10T05:13:30;15.73;;;8.50;;
40827;SDS011;26549;50.918;5.338;2023-05-10T05:16:00;14.38;;;8.48;;
40827;SDS011;26549;50.918;5.338;2023-05-10T05:23:27;15.48;;;9.80;;
40827;SDS011;26549;50.918;5.338;2023-05-10T05:25:52;15.82;;;9.27;;
40827;SDS011;26549;50.918;5.338;2023-05-10T05:28:20;15.70;;;9.32;;
40827;SDS011;26549;50.918;5.338;2023-05-10T05:30:46;13.48;;;8.73;;
40827;SDS011;26549;50.918;5.338;2023-05-10T05:33:15;16.33;;;9.32;;
40827;SDS011;26549;50.918;5.338;2023-05-10T05:35:41;13.50;;;9.55;;
40827;SDS011;26549;50.918;5.338;2023-05-10T05:38:10;13.05;;;9.25;;
40827;SDS011;26549;50.918;5.338;2023-05-10T05:40:37;14.30;;;9.25;;
40827;SDS011;26549;50.918;5.338;2023-05-10T05:43:03;18.02;;;10.13;;
40827;SDS011;26549;50.918;5.338;2023-05-10T05:45:28;16.95;;;10.13;;
40827;SDS011;26549;50.918;5.338;2023-05-10T05:47:54;19.17;;;10.57;;
40827;SDS011;26549;50.918;5.338;2023-05-10T05:52:50;20.92;;;11.93;;
40827;SDS011;26549;50.918;5.338;2023-05-10T05:55:16;21.35;;;11.75;;
40827;SDS011;26549;50.918;5.338;2023-05-10T05:57:42;22.25;;;13.02;;
40827;SDS011;26549;50.918;5.338;2023-05-10T06:00:08;20.70;;;12.63;;
40827;SDS011;26549;50.918;5.338;2023-05-10T06:02:34;21.60;;;13.20;;
40827;SDS011;26549;50.918;5.338;2023-05-10T06:05:00;20.27;;;13.38;;
40827;SDS011;26549;50.918;5.338;2023-05-10T06:07:25;19.75;;;12.30;;
40827;SDS011;26549;50.918;5.338;2023-05-10T06:09:51;19.58;;;11.60;;
40827;SDS011;26549;50.918;5.338;2023-05-10T06:12:17;23.08;;;13.68;;
40827;SDS011;26549;50.918;5.338;2023-05-10T06:14:43;18.27;;;11.93;;
40827;SDS011;26549;50.918;5.338;2023-05-10T06:17:08;23.65;;;11.98;;
40827;SDS011;26549;50.918;5.338;2023-05-10T06:19:34;22.50;;;11.77;;
40827;SDS011;26549;50.918;5.338;2023-05-10T06:22:00;25.95;;;12.20;;
40827;SDS011;26549;50.918;5.338;2023-05-10T06:24:28;22.17;;;12.77;;
40827;SDS011;26549;50.918;5.338;2023-05-10T06:26:54;23.48;;;13.55;;
40827;SDS011;26549;50.918;5.338;2023-05-10T06:29:20;28.42;;;15.40;;
40827;SDS011;26549;50.918;5.338;2023-05-10T06:31:45;25.25;;;14.10;;
40827;SDS011;26549;50.918;5.338;2023-05-10T06:34:12;24.85;;;14.18;;
40827;SDS011;26549;50.918;5.338;2023-05-10T06:36:38;28.90;;;14.93;;
40827;SDS011;26549;50.918;5.338;2023-05-10T06:39:04;24.58;;;13.38;;
40827;SDS011;26549;50.918;5.338;2023-05-10T06:41:30;25.33;;;14.50;;
40827;SDS011;26549;50.918;5.338;2023-05-10T06:43:56;28.02;;;14.35;;
40827;SDS011;26549;50.918;5.338;2023-05-10T06:46:22;25.05;;;15.13;;
40827;SDS011;26549;50.918;5.338;2023-05-10T06:48:47;22.80;;;14.05;;
40827;SDS011;26549;50.918;5.338;2023-05-10T06:51:13;29.70;;;15.18;;
40827;SDS011;26549;50.918;5.338;2023-05-10T06:53:40;25.75;;;15.82;;
40827;SDS011;26549;50.918;5.338;2023-05-10T06:56:06;29.92;;;15.90;;
40827;SDS011;26549;50.918;5.338;2023-05-10T06:58:32;29.83;;;15.15;;
40827;SDS011;26549;50.918;5.338;2023-05-10T07:01:04;29.02;;;16.70;;
40827;SDS011;26549;50.918;5.338;2023-05-10T07:03:30;28.05;;;14.77;;
40827;SDS011;26549;50.918;5.338;2023-05-10T07:06:00;26.95;;;14.73;;
40827;SDS011;26549;50.918;5.338;2023-05-10T07:08:28;30.33;;;15.27;;
40827;SDS011;26549;50.918;5.338;2023-05-10T07:11:04;26.30;;;14.65;;
40827;SDS011;26549;50.918;5.338;2023-05-10T07:13:33;30.23;;;14.75;;
40827;SDS011;26549;50.918;5.338;2023-05-10T07:16:00;26.95;;;15.35;;
40827;SDS011;26549;50.918;5.338;2023-05-10T07:18:27;22.20;;;14.57;;
40827;SDS011;26549;50.918;5.338;2023-05-10T07:20:53;24.42;;;14.55;;
40827;SDS011;26549;50.918;5.338;2023-05-10T07:23:18;26.35;;;14.57;;
40827;SDS011;26549;50.918;5.338;2023-05-10T07:25:48;26.45;;;13.95;;
40827;SDS011;26549;50.918;5.338;2023-05-10T07:28:16;25.50;;;14.90;;
40827;SDS011;26549;50.918;5.338;2023-05-10T07:30:42;25.50;;;13.77;;
40827;SDS011;26549;50.918;5.338;2023-05-10T07:33:08;23.10;;;13.18;;
40827;SDS011;26549;50.918;5.338;2023-05-10T07:35:35;29.90;;;14.32;;
40827;SDS011;26549;50.918;5.338;2023-05-10T07:38:01;23.88;;;13.70;;
40827;SDS011;26549;50.918;5.338;2023-05-10T07:40:28;22.92;;;14.23;;
40827;SDS011;26549;50.918;5.338;2023-05-10T07:42:54;21.77;;;13.32;;
40827;SDS011;26549;50.918;5.338;2023-05-10T07:45:20;22.10;;;13.68;;
40827;SDS011;26549;50.918;5.338;2023-05-10T07:47:47;20.48;;;12.27;;
40827;SDS011;26549;50.918;5.338;2023-05-10T07:50:12;25.60;;;13.48;;
40827;SDS011;26549;50.918;5.338;2023-05-10T07:52:39;22.08;;;12.30;;
40827;SDS011;26549;50.918;5.338;2023-05-10T07:55:04;20.50;;;12.60;;
40827;SDS011;26549;50.918;5.338;2023-05-10T07:57:33;19.58;;;12.38;;
40827;SDS011;26549;50.918;5.338;2023-05-10T07:59:59;21.33;;;11.95;;
40827;SDS011;26549;50.918;5.338;2023-05-10T08:02:25;19.25;;;11.57;;
40827;SDS011;26549;50.918;5.338;2023-05-10T08:04:50;8.65;;;6.07;;
40827;SDS011;26549;50.918;5.338;2023-05-10T08:07:17;4.68;;;2.60;;
40827;SDS011;26549;50.918;5.338;2023-05-10T08:09:43;4.93;;;2.53;;
40827;SDS011;26549;50.918;5.338;2023-05-10T08:12:09;2.67;;;2.10;;
40827;SDS011;26549;50.918;5.338;2023-05-10T08:14:35;2.78;;;2.38;;
40827;SDS011;26549;50.918;5.338;2023-05-10T08:17:02;5.78;;;1.63;;
40827;SDS011;26549;50.918;5.338;2023-05-10T08:19:28;3.22;;;1.80;;
40827;SDS011;26549;50.918;5.338;2023-05-10T08:21:54;1.45;;;1.15;;
40827;SDS011;26549;50.918;5.338;2023-05-10T08:24:22;1.95;;;1.15;;
40827;SDS011;26549;50.918;5.338;2023-05-10T08:26:47;2.35;;;1.60;;
40827;SDS011;26549;50.918;5.338;2023-05-10T08:29:13;2.60;;;1.80;;
40827;SDS011;26549;50.918;5.338;2023-05-10T08:31:40;3.42;;;1.13;;
40827;SDS011;26549;50.918;5.338;2023-05-10T08:34:06;3.10;;;1.45;;
40827;SDS011;26549;50.918;5.338;2023-05-10T08:36:32;1.80;;;1.30;;
40827;SDS011;26549;50.918;5.338;2023-05-10T08:38:58;2.00;;;1.60;;
40827;SDS011;26549;50.918;5.338;2023-05-10T08:41:24;3.28;;;1.45;;
40827;SDS011;26549;50.918;5.338;2023-05-10T08:43:51;3.72;;;2.05;;
40827;SDS011;26549;50.918;5.338;2023-05-10T08:46:18;4.55;;;2.10;;
40827;SDS011;26549;50.918;5.338;2023-05-10T08:48:46;5.65;;;1.98;;
40827;SDS011;26549;50.918;5.338;2023-05-10T08:51:13;2.97;;;1.85;;
40827;SDS011;26549;50.918;5.338;2023-05-10T08:53:42;3.35;;;2.75;;
40827;SDS011;26549;50.918;5.338;2023-05-10T08:56:09;3.28;;;2.78;;
40827;SDS011;26549;50.918;5.338;2023-05-10T08:58:36;4.00;;;2.92;;
40827;SDS011;26549;50.918;5.338;2023-05-10T09:01:02;3.92;;;3.28;;
40827;SDS011;26549;50.918;5.338;2023-05-10T09:03:29;4.03;;;2.22;;
40827;SDS011;26549;50.918;5.338;2023-05-10T09:05:56;7.43;;;2.47;;
40827;SDS011;26549;50.918;5.338;2023-05-10T09:08:25;5.18;;;3.00;;
40827;SDS011;26549;50.918;5.338;2023-05-10T09:10:51;5.38;;;3.00;;
40827;SDS011;26549;50.918;5.338;2023-05-10T09:13:18;4.30;;;2.70;;
40827;SDS011;26549;50.918;5.338;2023-05-10T09:15:46;5.70;;;2.40;;
40827;SDS011;26549;50.918;5.338;2023-05-10T09:18:13;3.05;;;2.70;;
40827;SDS011;26549;50.918;5.338;2023-05-10T09:20:39;6.90;;;2.83;;
40827;SDS011;26549;50.918;5.338;2023-05-10T09:23:06;5.00;;;3.00;;
40827;SDS011;26549;50.918;5.338;2023-05-10T09:25:32;4.57;;;2.80;;
40827;SDS011;26549;50.918;5.338;2023-05-10T09:27:59;7.53;;;3.55;;
40827;SDS011;26549;50.918;5.338;2023-05-10T09:30:25;5.70;;;3.15;;
40827;SDS011;26549;50.918;5.338;2023-05-10T09:32:52;5.10;;;2.65;;
40827;SDS011;26549;50.918;5.338;2023-05-10T09:35:20;5.13;;;3.35;;
40827;SDS011;26549;50.918;5.338;2023-05-10T09:37:51;6.05;;;3.03;;
40827;SDS011;26549;50.918;5.338;2023-05-10T09:40:22;3.78;;;2.70;;
40827;SDS011;26549;50.918;5.338;2023-05-10T09:45:23;5.60;;;3.15;;
40827;SDS011;26549;50.918;5.338;2023-05-10T09:47:50;3.78;;;2.95;;
40827;SDS011;26549;50.918;5.338;2023-05-10T09:50:16;4.55;;;3.65;;
40827;SDS011;26549;50.918;5.338;2023-05-10T09:52:46;7.10;;;3.80;;
40827;SDS011;26549;50.918;5.338;2023-05-10T09:55:20;4.80;;;3.75;;
40827;SDS011;26549;50.918;5.338;2023-05-10T09:57:47;5.97;;;3.50;;
40827;SDS011;26549;50.918;5.338;2023-05-10T10:00:20;8.80;;;4.50;;
40827;SDS011;26549;50.918;5.338;2023-05-10T10:02:47;8.25;;;4.20;;
40827;SDS011;26549;50.918;5.338;2023-05-10T10:05:19;10.00;;;4.22;;
40827;SDS011;26549;50.918;5.338;2023-05-10T10:07:45;9.57;;;4.10;;
40827;SDS011;26549;50.918;5.338;2023-05-10T10:10:11;11.05;;;4.72;;
40827;SDS011;26549;50.918;5.338;2023-05-10T10:12:38;7.82;;;5.18;;
40827;SDS011;26549;50.918;5.338;2023-05-10T10:15:06;6.50;;;4.30;;
40827;SDS011;26549;50.918;5.338;2023-05-10T10:17:33;7.80;;;4.75;;
40827;SDS011;26549;50.918;5.338;2023-05-10T10:20:03;8.02;;;4.90;;
40827;SDS011;26549;50.918;5.338;2023-05-10T10:22:29;9.93;;;5.72;;
40827;SDS011;26549;50.918;5.338;2023-05-10T10:24:55;6.57;;;4.65;;
40827;SDS011;26549;50.918;5.338;2023-05-10T10:33:13;11.13;;;6.32;;
40827;SDS011;26549;50.918;5.338;2023-05-10T10:35:53;13.07;;;5.45;;
40827;SDS011;26549;50.918;5.338;2023-05-10T10:38:19;10.75;;;5.50;;
40827;SDS011;26549;50.918;5.338;2023-05-10T10:40:46;8.07;;;5.28;;
40827;SDS011;26549;50.918;5.338;2023-05-10T10:43:25;8.30;;;5.38;;
40827;SDS011;26549;50.918;5.338;2023-05-10T10:48:47;11.13;;;5.70;;
40827;SDS011;26549;50.918;5.338;2023-05-10T10:51:14;8.50;;;4.90;;
40827;SDS011;26549;50.918;5.338;2023-05-10T10:53:40;7.47;;;4.78;;
40827;SDS011;26549;50.918;5.338;2023-05-10T10:56:08;9.57;;;5.57;;
40827;SDS011;26549;50.918;5.338;2023-05-10T10:58:36;7.25;;;4.80;;
40827;SDS011;26549;50.918;5.338;2023-05-10T11:01:13;7.97;;;5.45;;
40827;SDS011;26549;50.918;5.338;2023-05-10T11:03:41;6.80;;;4.40;;
40827;SDS011;26549;50.918;5.338;2023-05-10T11:06:33;8.52;;;4.85;;
40827;SDS011;26549;50.918;5.338;2023-05-10T11:09:07;7.20;;;4.55;;
40827;SDS011;26549;50.918;5.338;2023-05-10T11:12:08;7.45;;;4.63;;
40827;SDS011;26549;50.918;5.338;2023-05-10T11:14:33;7.88;;;4.68;;
40827;SDS011;26549;50.918;5.338;2023-05-10T11:16:59;8.77;;;4.53;;
40827;SDS011;26549;50.918;5.338;2023-05-10T11:19:27;6.53;;;4.35;;
40827;SDS011;26549;50.918;5.338;2023-05-10T11:24:31;4.72;;;3.30;;
40827;SDS011;26549;50.918;5.338;2023-05-10T11:27:00;4.75;;;3.30;;
40827;SDS011;26549;50.918;5.338;2023-05-10T11:31:57;6.07;;;3.70;;
40827;SDS011;26549;50.918;5.338;2023-05-10T11:34:26;6.95;;;3.10;;
40827;SDS011;26549;50.918;5.338;2023-05-10T11:36:55;5.18;;;4.57;;
40827;SDS011;26549;50.918;5.338;2023-05-10T11:39:32;4.95;;;3.10;;
40827;SDS011;26549;50.918;5.338;2023-05-10T11:41:59;4.00;;;3.25;;
40827;SDS011;26549;50.918;5.338;2023-05-10T11:44:32;5.13;;;2.80;;
40827;SDS011;26549;50.918;5.338;2023-05-10T11:46:59;3.72;;;2.95;;
40827;SDS011;26549;50.918;5.338;2023-05-10T11:49:25;5.18;;;3.13;;
40827;SDS011;26549;50.918;5.338;2023-05-10T11:51:51;7.50;;;3.35;;
40827;SDS011;26549;50.918;5.338;2023-05-10T11:54:19;8.75;;;2.92;;
40827;SDS011;26549;50.918;5.338;2023-05-10T11:56:45;3.25;;;2.72;;
40827;SDS011;26549;50.918;5.338;2023-05-10T11:59:13;6.90;;;2.85;;
40827;SDS011;26549;50.918;5.338;2023-05-10T12:01:41;3.00;;;2.30;;
40827;SDS011;26549;50.918;5.338;2023-05-10T12:04:08;4.28;;;2.65;;
40827;SDS011;26549;50.918;5.338;2023-05-10T12:06:37;4.35;;;2.60;;
40827;SDS011;26549;50.918;5.338;2023-05-10T12:09:07;3.28;;;2.42;;
40827;SDS011;26549;50.918;5.338;2023-05-10T12:11:37;3.83;;;2.47;;
40827;SDS011;26549;50.918;5.338;2023-05-10T12:19:04;3.33;;;2.28;;
40827;SDS011;26549;50.918;5.338;2023-05-10T12:21:30;2.30;;;1.80;;
40827;SDS011;26549;50.918;5.338;2023-05-10T12:24:00;2.83;;;2.00;;
40827;SDS011;26549;50.918;5.338;2023-05-10T12:26:29;3.55;;;2.42;;
40827;SDS011;26549;50.918;5.338;2023-05-10T12:29:11;2.25;;;1.52;;
40827;SDS011;26549;50.918;5.338;2023-05-10T12:31:53;3.97;;;1.70;;
40827;SDS011;26549;50.918;5.338;2023-05-10T12:34:27;2.80;;;1.95;;
40827;SDS011;26549;50.918;5.338;2023-05-10T12:36:57;3.92;;;2.60;;
40827;SDS011;26549;50.918;5.338;2023-05-10T12:39:23;5.25;;;2.28;;
40827;SDS011;26549;50.918;5.338;2023-05-10T12:41:51;2.90;;;2.40;;
40827;SDS011;26549;50.918;5.338;2023-05-10T12:44:20;2.88;;;2.35;;
40827;SDS011;26549;50.918;5.338;2023-05-10T12:46:46;8.02;;;2.45;;
40827;SDS011;26549;50.918;5.338;2023-05-10T12:49:11;3.22;;;2.92;;
40827;SDS011;26549;50.918;5.338;2023-05-10T12:51:37;3.15;;;2.28;;
40827;SDS011;26549;50.918;5.338;2023-05-10T12:54:03;2.35;;;2.10;;
40827;SDS011;26549;50.918;5.338;2023-05-10T12:56:29;2.60;;;2.08;;
40827;SDS011;26549;50.918;5.338;2023-05-10T12:58:55;2.95;;;2.13;;
40827;SDS011;26549;50.918;5.338;2023-05-10T13:01:21;2.90;;;2.53;;
40827;SDS011;26549;50.918;5.338;2023-05-10T13:03:50;2.53;;;1.60;;
40827;SDS011;26549;50.918;5.338;2023-05-10T13:06:16;2.75;;;1.55;;
40827;SDS011;26549;50.918;5.338;2023-05-10T13:08:42;1.40;;;1.30;;
40827;SDS011;26549;50.918;5.338;2023-05-10T13:11:11;2.28;;;1.50;;
40827;SDS011;26549;50.918;5.338;2023-05-10T13:13:37;1.25;;;1.15;;
40827;SDS011;26549;50.918;5.338;2023-05-10T13:16:04;2.05;;;1.38;;
40827;SDS011;26549;50.918;5.338;2023-05-10T13:18:30;3.17;;;1.50;;
40827;SDS011;26549;50.918;5.338;2023-05-10T13:20:56;1.33;;;1.20;;
40827;SDS011;26549;50.918;5.338;2023-05-10T13:23:22;2.28;;;1.65;;
40827;SDS011;26549;50.918;5.338;2023-05-10T13:25:48;1.77;;;1.33;;
40827;SDS011;26549;50.918;5.338;2023-05-10T13:28:14;2.22;;;1.67;;
40827;SDS011;26549;50.918;5.338;2023-05-10T13:30:40;2.40;;;2.05;;
40827;SDS011;26549;50.918;5.338;2023-05-10T13:33:06;2.38;;;1.88;;
40827;SDS011;26549;50.918;5.338;2023-05-10T13:35:32;1.60;;;1.30;;
40827;SDS011;26549;50.918;5.338;2023-05-10T13:37:58;1.55;;;1.10;;
40827;SDS011;26549;50.918;5.338;2023-05-10T13:40:23;2.35;;;1.17;;
40827;SDS011;26549;50.918;5.338;2023-05-10T13:42:49;2.30;;;1.10;;
40827;SDS011;26549;50.918;5.338;2023-05-10T13:45:15;0.90;;;0.75;;
40827;SDS011;26549;50.918;5.338;2023-05-10T13:47:41;1.25;;;0.95;;
40827;SDS011;26549;50.918;5.338;2023-05-10T13:50:06;1.17;;;1.08;;
40827;SDS011;26549;50.918;5.338;2023-05-10T13:52:33;1.33;;;1.10;;
40827;SDS011;26549;50.918;5.338;2023-05-10T13:54:58;0.88;;;0.85;;
40827;SDS011;26549;50.918;5.338;2023-05-10T13:57:25;4.80;;;1.10;;
40827;SDS011;26549;50.918;5.338;2023-05-10T13:59:51;1.10;;;0.90;;
40827;SDS011;26549;50.918;5.338;2023-05-10T14:02:17;1.05;;;0.90;;
40827;SDS011;26549;50.918;5.338;2023-05-10T14:04:43;1.02;;;0.93;;
40827;SDS011;26549;50.918;5.338;2023-05-10T14:07:09;1.30;;;1.20;;
40827;SDS011;26549;50.918;5.338;2023-05-10T14:09:35;1.90;;;1.58;;
40827;SDS011;26549;50.918;5.338;2023-05-10T14:12:02;1.27;;;1.02;;
40827;SDS011;26549;50.918;5.338;2023-05-10T14:14:29;1.92;;;1.35;;
40827;SDS011;26549;50.918;5.338;2023-05-10T14:16:57;1.75;;;1.23;;
40827;SDS011;26549;50.918;5.338;2023-05-10T14:19:27;1.55;;;1.10;;
40827;SDS011;26549;50.918;5.338;2023-05-10T14:21:55;3.17;;;1.00;;
40827;SDS011;26549;50.918;5.338;2023-05-10T14:26:53;1.52;;;0.88;;
40827;SDS011;26549;50.918;5.338;2023-05-10T14:29:19;1.30;;;1.20;;
40827;SDS011;26549;50.918;5.338;2023-05-10T14:31:46;1.38;;;1.00;;
40827;SDS011;26549;50.918;5.338;2023-05-10T14:34:12;1.48;;;0.98;;
40827;SDS011;26549;50.918;5.338;2023-05-10T14:36:38;1.63;;;1.30;;
40827;SDS011;26549;50.918;5.338;2023-05-10T14:39:04;3.78;;;1.27;;
40827;SDS011;26549;50.918;5.338;2023-05-10T14:41:31;1.60;;;1.40;;
40827;SDS011;26549;50.918;5.338;2023-05-10T14:43:57;1.98;;;1.40;;
40827;SDS011;26549;50.918;5.338;2023-05-10T14:46:23;4.00;;;1.25;;
40827;SDS011;26549;50.918;5.338;2023-05-10T14:48:49;1.80;;;1.23;;
40827;SDS011;26549;50.918;5.338;2023-05-10T14:51:15;2.25;;;1.65;;
40827;SDS011;26549;50.918;5.338;2023-05-10T14:53:41;1.30;;;1.08;;
40827;SDS011;26549;50.918;5.338;2023-05-10T14:56:06;1.65;;;1.50;;
40827;SDS011;26549;50.918;5.338;2023-05-10T14:58:32;1.33;;;1.00;;
40827;SDS011;26549;50.918;5.338;2023-05-10T15:00:58;1.27;;;0.90;;
40827;SDS011;26549;50.918;5.338;2023-05-10T15:03:24;1.42;;;1.00;;
40827;SDS011;26549;50.918;5.338;2023-05-10T15:05:50;1.63;;;1.10;;
40827;SDS011;26549;50.918;5.338;2023-05-10T15:08:16;1.85;;;1.17;;
40827;SDS011;26549;50.918;5.338;2023-05-10T15:10:42;1.48;;;1.05;;
40827;SDS011;26549;50.918;5.338;2023-05-10T15:13:08;1.90;;;1.30;;
40827;SDS011;26549;50.918;5.338;2023-05-10T15:15:34;1.63;;;1.08;;
40827;SDS011;26549;50.918;5.338;2023-05-10T15:17:59;1.08;;;0.75;;
40827;SDS011;26549;50.918;5.338;2023-05-10T15:20:25;1.00;;;0.80;;
40827;SDS011;26549;50.918;5.338;2023-05-10T15:22:51;0.95;;;0.68;;
40827;SDS011;26549;50.918;5.338;2023-05-10T15:25:17;1.85;;;1.30;;
40827;SDS011;26549;50.918;5.338;2023-05-10T15:27:45;2.65;;;0.80;;
40827;SDS011;26549;50.918;5.338;2023-05-10T15:30:10;1.85;;;1.00;;
40827;SDS011;26549;50.918;5.338;2023-05-10T15:32:37;2.25;;;1.08;;
40827;SDS011;26549;50.918;5.338;2023-05-10T15:35:04;1.70;;;1.25;;
40827;SDS011;26549;50.918;5.338;2023-05-10T15:37:33;1.27;;;0.85;;
40827;SDS011;26549;50.918;5.338;2023-05-10T15:39:59;3.40;;;1.25;;